createdAt,value
2022-11-20T00:01:08.432Z,24.10
2022-11-20T00:03:41.431Z,25.80
2022-11-20T00:06:16.235Z,23.70
2022-11-20T00:08:49.151Z,21.60
2022-11-20T00:11:23.290Z,24.70
2022-11-20T00:13:58.102Z,24.90
2022-11-20T00:16:32.393Z,28.10
2022-11-20T00:19:04.545Z,29.70
2022-11-20T00:21:36.682Z,31.90
2022-11-20T00:26:40.240Z,28.60
2022-11-20T00:31:44.035Z,26.60
2022-11-20T00:36:46.684Z,32.40
2022-11-20T00:41:49.404Z,24.00
2022-11-20T00:46:52.123Z,21.80
2022-11-20T00:49:24.172Z,24.40
2022-11-20T00:51:56.499Z,27.40
2022-11-20T00:54:28.613Z,28.70
2022-11-20T00:57:00.782Z,34.50
2022-11-20T00:59:32.900Z,35.30
2022-11-20T01:02:05.098Z,32.20
2022-11-20T01:07:08.122Z,27.40
2022-11-20T01:09:41.666Z,29.00
2022-11-20T01:12:13.877Z,44.60
2022-11-20T01:17:16.467Z,31.80
2022-11-20T01:22:18.900Z,29.00
2022-11-20T01:24:51.296Z,27.90
2022-11-20T01:27:23.307Z,26.90
2022-11-20T01:30:00.845Z,24.80
2022-11-20T01:32:33.207Z,26.30
2022-11-20T01:37:35.896Z,21.90
2022-11-20T01:42:57.227Z,23.30
2022-11-20T01:46:02.704Z,24.70
2022-11-20T01:48:38.871Z,24.60
2022-11-20T01:51:19.374Z,26.70
2022-11-20T01:53:54.055Z,26.50
2022-11-20T01:56:27.572Z,24.20
2022-11-20T01:59:03.752Z,28.50
2022-11-20T02:01:36.036Z,27.80
2022-11-20T02:04:09.156Z,27.50
2022-11-20T02:06:46.001Z,24.50
2022-11-20T02:09:18.349Z,23.40
2022-11-20T02:11:50.667Z,20.80
2022-11-20T02:16:53.712Z,20.10
2022-11-20T02:19:29.323Z,19.60
2022-11-20T02:22:07.536Z,21.60
2022-11-20T02:24:39.922Z,26.10
2022-11-20T02:27:14.661Z,27.80
2022-11-20T02:29:52.705Z,25.40
2022-11-20T02:32:26.469Z,26.60
2022-11-20T02:34:59.318Z,25.70
2022-11-20T02:37:38.063Z,26.90
2022-11-20T02:40:12.479Z,26.60
2022-11-20T02:42:44.801Z,24.40
2022-11-20T02:45:16.842Z,25.60
2022-11-20T02:47:48.972Z,29.30
2022-11-20T02:52:52.226Z,27.80
2022-11-20T02:55:24.429Z,26.10
2022-11-20T03:00:27.122Z,24.20
2022-11-20T03:05:29.630Z,26.60
2022-11-20T03:08:01.775Z,21.70
2022-11-20T03:10:33.904Z,23.90
2022-11-20T03:13:06.409Z,27.30
2022-11-20T03:15:39.515Z,27.50
2022-11-20T03:18:11.649Z,28.30
2022-11-20T03:23:14.209Z,28.30
2022-11-20T03:28:16.633Z,25.80
2022-11-20T03:33:19.188Z,25.70
2022-11-20T03:38:21.634Z,27.10
2022-11-20T03:43:24.348Z,25.40
2022-11-20T03:45:56.314Z,30.40
2022-11-20T03:48:29.027Z,28.30
2022-11-20T03:51:15.235Z,30.40
2022-11-20T03:53:48.937Z,29.40
2022-11-20T03:56:23.338Z,33.60
2022-11-20T03:58:55.641Z,31.20
2022-11-20T04:01:30.802Z,32.70
2022-11-20T04:04:03.052Z,36.20
2022-11-20T04:06:38.684Z,35.50
2022-11-20T04:09:10.932Z,34.50
2022-11-20T04:11:43.654Z,32.60
2022-11-20T04:14:18.610Z,31.90
2022-11-20T04:16:50.691Z,31.20
2022-11-20T04:19:22.995Z,34.70
2022-11-20T04:21:55.225Z,32.90
2022-11-20T04:24:28.290Z,33.10
2022-11-20T04:27:00.311Z,36.00
2022-11-20T04:32:02.772Z,33.60
2022-11-20T04:37:05.387Z,29.20
2022-11-20T04:39:37.387Z,32.50
2022-11-20T04:44:57.879Z,29.10
2022-11-20T04:47:30.183Z,34.40
2022-11-20T04:50:02.401Z,27.00
2022-11-20T04:55:05.378Z,29.10
2022-11-20T04:57:37.326Z,29.70
2022-11-20T05:02:41.289Z,27.90
2022-11-20T05:05:13.855Z,29.50
2022-11-20T05:07:45.938Z,31.70
2022-11-20T05:12:49.198Z,27.30
2022-11-20T05:15:21.471Z,27.50
2022-11-20T05:17:54.325Z,32.90
2022-11-20T05:20:26.574Z,32.10
2022-11-20T05:23:01.345Z,31.30
2022-11-20T05:25:33.340Z,25.60
2022-11-20T05:28:05.506Z,28.80
2022-11-20T05:30:37.499Z,25.20
2022-11-20T05:33:09.871Z,31.00
2022-11-20T05:35:42.052Z,28.50
2022-11-20T05:38:14.225Z,30.50
2022-11-20T05:43:17.128Z,27.90
2022-11-20T05:45:56.722Z,30.50
2022-11-20T05:48:29.212Z,31.50
2022-11-20T05:51:02.440Z,31.00
2022-11-20T05:53:35.709Z,29.50
2022-11-20T05:56:11.832Z,27.20
2022-11-20T05:58:44.252Z,28.00
2022-11-20T06:01:21.255Z,28.50
2022-11-20T06:03:54.608Z,28.60
2022-11-20T06:06:27.330Z,30.10
2022-11-20T06:08:59.995Z,29.00
2022-11-20T06:11:32.112Z,26.40
2022-11-20T06:16:35.271Z,24.00
2022-11-20T06:19:07.562Z,28.70
2022-11-20T06:24:12.439Z,27.90
2022-11-20T06:26:44.623Z,26.20
2022-11-20T06:29:16.814Z,29.30
2022-11-20T06:31:48.936Z,31.50
2022-11-20T06:34:21.600Z,28.20
2022-11-20T06:36:53.557Z,31.90
2022-11-20T06:41:59.562Z,27.00
2022-11-20T06:44:31.943Z,27.20
2022-11-20T06:49:35.345Z,28.50
2022-11-20T06:52:07.673Z,27.00
2022-11-20T06:54:39.567Z,27.30
2022-11-20T06:59:43.130Z,27.20
2022-11-20T07:02:15.304Z,28.20
2022-11-20T07:04:48.086Z,30.80
2022-11-20T07:07:20.786Z,31.50
2022-11-20T07:09:54.469Z,31.90
2022-11-20T07:12:26.924Z,24.10
2022-11-20T07:15:00.926Z,34.60
2022-11-20T07:17:33.501Z,38.60
2022-11-20T07:20:08.083Z,38.50
2022-11-20T07:22:41.329Z,30.00
2022-11-20T07:25:14.265Z,37.70
2022-11-20T07:27:47.447Z,38.40
2022-11-20T07:30:19.938Z,34.50
2022-11-20T07:32:55.319Z,37.00
2022-11-20T07:35:28.866Z,38.00
2022-11-20T07:38:02.154Z,39.90
2022-11-20T07:40:36.300Z,41.40
2022-11-20T07:43:09.514Z,39.50
2022-11-20T07:45:42.012Z,36.30
2022-11-20T07:50:45.604Z,38.00
2022-11-20T07:55:55.032Z,39.70
2022-11-20T07:58:27.705Z,45.10
2022-11-20T08:01:05.415Z,39.90
2022-11-20T08:03:39.904Z,39.00
2022-11-20T08:06:12.787Z,39.20
2022-11-20T08:08:45.623Z,41.70
2022-11-20T08:11:35.544Z,46.90
2022-11-20T08:14:14.458Z,56.30
2022-11-20T08:16:49.261Z,51.60
2022-11-20T08:19:23.240Z,48.20
2022-11-20T08:21:55.498Z,46.30
2022-11-20T08:24:27.861Z,55.00
2022-11-20T08:27:01.089Z,74.90
2022-11-20T08:29:33.167Z,64.20
2022-11-20T08:32:05.486Z,67.90
2022-11-20T08:34:43.911Z,65.40
2022-11-20T08:37:15.888Z,51.90
2022-11-20T08:39:48.180Z,44.70
2022-11-20T08:42:20.219Z,47.70
2022-11-20T08:44:52.226Z,46.40
2022-11-20T08:47:24.307Z,46.60
2022-11-20T08:52:27.012Z,41.40
2022-11-20T08:57:29.603Z,43.20
2022-11-20T09:00:06.338Z,45.80
2022-11-20T09:02:38.599Z,47.00
2022-11-20T09:05:12.463Z,42.00
2022-11-20T09:07:44.528Z,45.60
2022-11-20T09:10:23.959Z,56.90
2022-11-20T09:12:57.463Z,53.40
2022-11-20T09:15:29.780Z,46.00
2022-11-20T09:18:03.651Z,46.30
2022-11-20T09:20:35.659Z,44.50
2022-11-20T09:23:07.791Z,44.40
2022-11-20T09:25:39.933Z,55.70
2022-11-20T09:30:42.646Z,51.90
2022-11-20T09:33:14.736Z,52.90
2022-11-20T09:38:17.708Z,44.20
2022-11-20T09:40:58.024Z,42.60
2022-11-20T09:43:43.651Z,46.10
2022-11-20T09:46:22.631Z,43.60
2022-11-20T09:49:09.873Z,45.00
2022-11-20T09:51:56.727Z,48.30
2022-11-20T09:54:35.046Z,53.80
2022-11-20T09:57:13.208Z,55.90
2022-11-20T09:59:48.860Z,56.80
2022-11-20T10:02:30.866Z,56.40
2022-11-20T10:05:09.108Z,54.00
2022-11-20T10:07:45.935Z,57.20
2022-11-20T10:10:29.783Z,111.30
2022-11-20T10:13:17.419Z,68.70
2022-11-20T10:16:03.328Z,51.50
2022-11-20T10:18:52.776Z,49.70
2022-11-20T10:21:34.624Z,53.20
2022-11-20T10:24:36.989Z,48.10
2022-11-20T10:27:18.220Z,45.00
2022-11-20T10:30:01.785Z,42.30
2022-11-20T10:32:38.891Z,42.40
2022-11-20T10:35:22.362Z,40.20
2022-11-20T10:38:00.421Z,38.20
2022-11-20T10:40:37.628Z,35.70
2022-11-20T10:43:17.587Z,33.80
2022-11-20T10:45:57.608Z,33.00
2022-11-20T10:48:33.281Z,31.80
2022-11-20T10:51:24.056Z,33.70
2022-11-20T10:54:08.518Z,32.40
2022-11-20T10:56:50.243Z,32.80
2022-11-20T10:59:47.742Z,33.70
2022-11-20T11:02:21.994Z,36.40
2022-11-20T11:04:55.797Z,34.80
2022-11-20T11:07:31.215Z,31.60
2022-11-20T11:10:03.649Z,29.60
2022-11-20T11:12:35.766Z,22.50
2022-11-20T11:15:14.823Z,29.30
2022-11-20T11:17:51.278Z,28.60
2022-11-20T11:20:24.385Z,28.80
2022-11-20T11:22:58.972Z,30.10
2022-11-20T11:25:35.553Z,33.40
2022-11-20T11:28:22.378Z,31.70
2022-11-20T11:30:54.505Z,32.20
2022-11-20T11:35:59.530Z,29.80
2022-11-20T11:38:37.855Z,26.80
2022-11-20T11:41:17.437Z,25.20
2022-11-20T11:44:13.615Z,32.00
2022-11-20T11:46:53.914Z,28.70
2022-11-20T11:49:26.148Z,38.70
2022-11-20T11:52:07.417Z,97.40
2022-11-20T11:54:45.359Z,89.40
2022-11-20T11:57:22.809Z,61.90
2022-11-20T12:00:06.363Z,28.60
2022-11-20T12:02:47.344Z,23.70
2022-11-20T12:05:25.607Z,20.40
2022-11-20T12:08:09.441Z,24.90
2022-11-20T12:10:54.326Z,28.30
2022-11-20T12:13:37.487Z,30.40
2022-11-20T12:16:14.913Z,20.90
2022-11-20T12:18:48.544Z,22.80
2022-11-20T12:21:28.519Z,21.30
2022-11-20T12:24:34.581Z,22.90
2022-11-20T12:27:26.905Z,20.90
2022-11-20T12:30:05.783Z,23.20
2022-11-20T12:32:53.980Z,22.50
2022-11-20T12:35:44.182Z,22.70
2022-11-20T12:38:45.305Z,22.20
2022-11-20T12:41:46.561Z,21.40
2022-11-20T12:44:53.322Z,21.50
2022-11-20T12:47:34.248Z,21.00
2022-11-20T12:50:17.531Z,20.10
2022-11-20T12:52:56.822Z,19.00
2022-11-20T12:55:35.939Z,21.60
2022-11-20T12:58:13.833Z,20.90
2022-11-20T13:00:56.971Z,18.30
2022-11-20T13:03:40.125Z,19.30
2022-11-20T13:06:19.639Z,19.80
2022-11-20T13:08:57.646Z,23.00
2022-11-20T13:11:39.525Z,26.20
2022-11-20T13:14:34.596Z,29.40
2022-11-20T13:17:14.504Z,22.40
2022-11-20T13:19:52.613Z,17.80
2022-11-20T13:22:30.331Z,18.90
2022-11-20T13:25:03.327Z,21.40
2022-11-20T13:27:36.289Z,17.10
2022-11-20T13:30:20.614Z,17.80
2022-11-20T13:32:55.484Z,18.60
2022-11-20T13:35:34.609Z,15.90
2022-11-20T13:38:12.845Z,16.30
2022-11-20T13:40:55.451Z,14.50
2022-11-20T13:43:37.597Z,13.80
2022-11-20T13:46:12.026Z,13.30
2022-11-20T13:48:47.538Z,15.30
2022-11-20T13:51:35.182Z,15.00
2022-11-20T13:54:35.001Z,16.40
2022-11-20T13:57:21.485Z,13.20
2022-11-20T14:00:00.209Z,17.40
2022-11-20T14:02:33.750Z,13.50
2022-11-20T14:05:09.866Z,14.10
2022-11-20T14:07:44.522Z,12.80
2022-11-20T14:10:30.095Z,13.20
2022-11-20T14:13:17.683Z,13.70
2022-11-20T14:15:58.946Z,12.90
2022-11-20T14:18:31.820Z,36.10
2022-11-20T14:21:06.388Z,28.70
2022-11-20T14:23:40.221Z,42.00
2022-11-20T14:26:17.815Z,34.90
2022-11-20T14:28:53.315Z,26.70
2022-11-20T14:31:28.409Z,27.00
2022-11-20T14:34:00.977Z,29.40
2022-11-20T14:36:34.626Z,27.80
2022-11-20T14:39:06.726Z,32.00
2022-11-20T14:41:38.778Z,37.10
2022-11-20T14:44:13.426Z,36.70
2022-11-20T14:46:46.252Z,34.40
2022-11-20T14:49:30.880Z,38.00
2022-11-20T14:52:17.989Z,43.40
2022-11-20T14:54:52.034Z,59.00
2022-11-20T14:57:27.685Z,56.00
2022-11-20T15:00:21.489Z,47.50
2022-11-20T15:02:54.598Z,44.00
2022-11-20T15:05:28.725Z,43.00
2022-11-20T15:08:11.723Z,39.10
2022-11-20T15:10:50.310Z,38.30
2022-11-20T15:13:29.521Z,35.70
2022-11-20T15:16:02.812Z,36.20
2022-11-20T15:18:40.195Z,38.20
2022-11-20T15:21:15.677Z,35.40
2022-11-20T15:23:49.413Z,30.50
2022-11-20T15:26:26.679Z,28.80
2022-11-20T15:29:00.301Z,28.30
2022-11-20T15:31:33.490Z,31.30
2022-11-20T15:34:08.728Z,30.50
2022-11-20T15:36:41.773Z,33.30
2022-11-20T15:39:14.936Z,28.70
2022-11-20T15:41:47.575Z,17.40
2022-11-20T15:44:21.728Z,15.90
2022-11-20T15:46:54.577Z,16.50
2022-11-20T15:49:26.612Z,15.00
2022-11-20T15:51:58.608Z,17.30
2022-11-20T15:54:30.932Z,18.70
2022-11-20T15:57:03.929Z,18.10
2022-11-20T15:59:38.092Z,15.00
2022-11-20T16:02:18.739Z,16.90
2022-11-20T16:04:53.641Z,18.80
2022-11-20T16:07:26.343Z,26.70
2022-11-20T16:09:58.679Z,29.80
2022-11-20T16:12:48.552Z,31.90
2022-11-20T16:15:38.999Z,54.10
2022-11-20T16:18:13.219Z,69.70
2022-11-20T16:20:46.277Z,58.30
2022-11-20T16:23:18.913Z,43.90
2022-11-20T16:25:52.605Z,67.20
2022-11-20T16:28:25.541Z,102.80
2022-11-20T16:30:58.269Z,90.50
2022-11-20T16:33:31.439Z,96.40
2022-11-20T16:36:10.468Z,93.60
2022-11-20T16:38:44.021Z,83.90
2022-11-20T16:41:16.036Z,67.40
2022-11-20T16:43:50.212Z,69.50
2022-11-20T16:46:24.347Z,71.60
2022-11-20T16:48:58.825Z,61.00
2022-11-20T16:51:33.326Z,56.40
2022-11-20T16:54:06.899Z,53.10
2022-11-20T16:56:40.157Z,55.80
2022-11-20T16:59:12.472Z,49.30
2022-11-20T17:01:44.756Z,36.00
2022-11-20T17:06:48.007Z,32.60
2022-11-20T17:09:20.221Z,35.40
2022-11-20T17:14:23.269Z,38.40
2022-11-20T17:16:55.500Z,34.80
2022-11-20T17:19:27.672Z,33.60
2022-11-20T17:21:59.885Z,37.30
2022-11-20T17:24:32.348Z,40.70
2022-11-20T17:27:04.639Z,34.50
2022-11-20T17:29:41.873Z,35.20
2022-11-20T17:32:14.377Z,52.60
2022-11-20T17:34:46.367Z,34.70
2022-11-20T17:37:18.433Z,33.20
2022-11-20T17:39:50.379Z,35.80
2022-11-20T17:42:29.922Z,32.30
2022-11-20T17:45:02.072Z,31.20
2022-11-20T17:50:06.672Z,35.50
2022-11-20T17:52:39.010Z,36.40
2022-11-20T17:55:13.233Z,39.70
2022-11-20T17:58:02.940Z,38.60
2022-11-20T18:00:35.802Z,39.60
2022-11-20T18:03:08.213Z,35.00
2022-11-20T18:05:41.396Z,38.20
2022-11-20T18:08:14.288Z,44.40
2022-11-20T18:10:46.698Z,54.30
2022-11-20T18:13:19.280Z,61.60
2022-11-20T18:15:51.575Z,47.10
2022-11-20T18:18:23.824Z,44.70
2022-11-20T18:20:57.371Z,52.60
2022-11-20T18:23:31.660Z,61.00
2022-11-20T18:26:05.956Z,64.20
2022-11-20T18:28:41.079Z,56.70
2022-11-20T18:31:14.347Z,57.70
2022-11-20T18:33:47.874Z,51.90
2022-11-20T18:36:22.426Z,50.30
2022-11-20T18:38:57.024Z,42.30
2022-11-20T18:41:48.197Z,37.30
2022-11-20T18:44:42.016Z,39.10
2022-11-20T18:47:16.995Z,41.60
2022-11-20T18:49:53.188Z,37.90
2022-11-20T18:52:26.921Z,32.90
2022-11-20T18:54:59.368Z,31.20
2022-11-20T18:57:32.318Z,57.30
2022-11-20T19:00:09.384Z,62.20
2022-11-20T19:02:43.231Z,45.10
2022-11-20T19:05:17.035Z,35.50
2022-11-20T19:07:51.626Z,25.30
2022-11-20T19:10:24.915Z,24.50
2022-11-20T19:12:58.777Z,47.00
2022-11-20T19:15:31.139Z,43.40
2022-11-20T19:18:03.460Z,46.70
2022-11-20T19:20:35.947Z,41.20
2022-11-20T19:23:08.577Z,33.90
2022-11-20T19:25:40.925Z,30.30
2022-11-20T19:28:13.177Z,30.80
2022-11-20T19:33:15.968Z,27.50
2022-11-20T19:35:48.709Z,37.90
2022-11-20T19:38:20.937Z,36.10
2022-11-20T19:43:23.533Z,28.40
2022-11-20T19:45:56.728Z,28.00
2022-11-20T19:48:30.983Z,31.50
2022-11-20T19:51:12.045Z,30.00
2022-11-20T19:53:44.928Z,31.60
2022-11-20T19:56:17.176Z,27.40
2022-11-20T19:58:49.592Z,25.10
2022-11-20T20:01:24.392Z,24.70
2022-11-20T20:04:01.442Z,24.50
2022-11-20T20:06:35.428Z,25.20
2022-11-20T20:09:10.243Z,24.20
2022-11-20T20:11:46.563Z,26.80
2022-11-20T20:14:19.559Z,26.40
2022-11-20T20:16:51.865Z,30.20
2022-11-20T20:19:24.846Z,30.80
2022-11-20T20:21:57.327Z,28.10
2022-11-20T20:24:29.383Z,28.20
2022-11-20T20:27:01.426Z,27.60
2022-11-20T20:29:33.385Z,26.20
2022-11-20T20:32:05.562Z,26.00
2022-11-20T20:37:08.291Z,25.00
2022-11-20T20:42:11.040Z,22.90
2022-11-20T20:45:00.605Z,25.20
2022-11-20T20:47:34.336Z,26.50
2022-11-20T20:50:07.604Z,27.90
2022-11-20T20:52:40.247Z,28.00
2022-11-20T20:55:14.209Z,27.90
2022-11-20T20:57:46.267Z,28.00
2022-11-20T21:00:19.337Z,35.10
2022-11-20T21:02:51.405Z,26.70
2022-11-20T21:05:23.534Z,36.10
2022-11-20T21:10:43.640Z,29.10
2022-11-20T21:13:15.835Z,28.00
2022-11-20T21:15:49.969Z,26.60
2022-11-20T21:18:23.657Z,25.90
2022-11-20T21:21:15.323Z,23.40
2022-11-20T21:23:49.756Z,25.30
2022-11-20T21:26:22.769Z,21.60
2022-11-20T21:28:55.079Z,25.20
2022-11-20T21:31:28.784Z,27.60
2022-11-20T21:34:01.488Z,22.70
2022-11-20T21:36:34.007Z,23.10
2022-11-20T21:39:06.483Z,24.00
2022-11-20T21:41:38.994Z,23.20
2022-11-20T21:44:31.392Z,23.90
2022-11-20T21:47:03.948Z,24.60
2022-11-20T21:49:36.142Z,21.40
2022-11-20T21:52:08.448Z,25.10
2022-11-20T21:54:40.822Z,25.00
2022-11-20T21:57:12.865Z,24.60
2022-11-20T21:59:44.881Z,24.60
2022-11-20T22:02:18.279Z,35.00
2022-11-20T22:04:51.433Z,35.20
2022-11-20T22:07:23.599Z,35.30
2022-11-20T22:09:55.813Z,51.70
2022-11-20T22:14:58.437Z,51.90
2022-11-20T22:17:48.016Z,36.90
2022-11-20T22:20:20.436Z,34.80
2022-11-20T22:22:52.686Z,30.30
2022-11-20T22:27:55.106Z,29.30
2022-11-20T22:30:27.807Z,28.80
2022-11-20T22:32:59.881Z,24.70
2022-11-20T22:35:32.792Z,37.30
2022-11-20T22:38:04.820Z,29.90
2022-11-20T22:40:37.269Z,32.50
2022-11-20T22:45:39.901Z,30.50
2022-11-20T22:48:12.135Z,27.90
2022-11-20T22:50:44.223Z,29.30
2022-11-20T22:55:49.957Z,31.70
2022-11-20T22:58:22.248Z,32.50
2022-11-20T23:00:54.280Z,29.30
2022-11-20T23:03:26.415Z,30.40
2022-11-20T23:08:32.190Z,28.90
2022-11-20T23:11:05.893Z,29.80
2022-11-20T23:13:38.398Z,32.20
2022-11-20T23:16:13.941Z,32.90
2022-11-20T23:18:46.855Z,37.50
2022-11-20T23:21:20.615Z,38.00
2022-11-20T23:23:53.944Z,33.50
2022-11-20T23:26:28.484Z,30.70
2022-11-20T23:29:01.682Z,28.30
2022-11-20T23:31:35.628Z,27.60
2022-11-20T23:34:07.679Z,29.40
2022-11-20T23:36:39.775Z,31.60
2022-11-20T23:41:42.396Z,26.80
2022-11-20T23:44:14.350Z,29.00
2022-11-20T23:46:46.427Z,27.50
2022-11-20T23:49:18.408Z,27.50
2022-11-20T23:54:20.769Z,27.00
2022-11-20T23:56:52.749Z,26.00
